PST,Max TemperatureF,Mean TemperatureF,Min TemperatureF,Max Dew PointF,MeanDew PointF,Min DewpointF,Max Humidity, Mean Humidity, Min Humidity, Max Sea Level PressureIn, Mean Sea Level PressureIn, Min Sea Level PressureIn, Max VisibilityMiles, Mean VisibilityMiles, Min VisibilityMiles, Max Wind SpeedMPH, Mean Wind SpeedMPH, Max Gust SpeedMPH,PrecipitationIn, CloudCover, Events, WindDirDegrees
2013-2-1,50,46,42,46,44,42,100,96,77,30.42,30.38,30.34,10,6,0,10,3,,0.03,6,Fog-Rain,320
2013-2-2,42,40,37,43,39,35,100,97,81,30.40,30.33,30.28,10,4,2,9,6,,0.00,8,,329
2013-2-3,48,42,37,45,40,35,100,92,80,30.32,30.28,30.21,10,8,2,8,3,,0.07,8,Rain,155
2013-2-4,51,48,44,43,42,39,96,85,66,30.22,30.11,29.92,10,10,8,6,2,,0.00,6,,129
2013-2-5,50,47,44,44,41,39,93,83,71,29.97,29.90,29.85,10,9,2,13,6,20,0.19,7,Rain,161
2013-2-6,52,48,44,42,40,36,89,79,56,30.08,29.98,29.81,10,10,4,13,6,20,0.04,7,Rain,144
2013-2-7,48,42,34,41,36,31,96,75,50,30.21,30.03,29.82,10,10,6,14,5,24,0.06,4,Rain,162
2013-2-8,44,38,33,37,35,32,100,86,73,30.33,30.28,30.21,10,10,9,6,0,,0.00,8,,320
2013-2-9,45,42,39,41,39,36,96,89,74,30.36,30.30,30.27,10,8,5,5,1,,0.00,8,,336
2013-2-10,46,40,35,43,38,35,100,89,68,30.40,30.37,30.35,10,7,0,9,1,,0.00,6,Fog,334
2013-2-11,48,42,37,42,39,36,97,82,66,30.38,30.36,30.33,10,9,7,7,1,,0.00,8,,149
2013-2-12,51,48,44,46,44,43,100,93,77,30.42,30.37,30.32,10,7,2,16,3,22,0.00,8,,151
2013-2-13,48,46,44,46,42,39,100,83,71,30.53,30.44,30.35,10,9,3,8,4,17,0.03,7,Rain,171
2013-2-14,50,46,43,45,43,39,97,87,74,30.57,30.55,30.51,10,10,8,7,4,,0.01,8,Rain,144
2013-2-15,55,47,39,43,42,39,100,94,62,30.56,30.43,30.20,10,5,0,10,3,,0.00,4,Fog,330
2013-2-16,52,44,37,43,39,36,100,80,54,30.22,30.17,30.13,10,9,6,17,6,28,0.00,7,Rain,157
2013-2-17,48,45,42,39,35,30,86,71,52,30.27,30.21,30.13,10,10,10,9,6,,0.00,8,Rain,164
2013-2-18,46,42,37,38,36,34,93,81,63,30.12,29.95,29.77,10,10,8,13,2,21,0.02,7,Rain,135
2013-2-19,50,42,35,37,35,33,93,80,54,30.03,29.87,29.76,10,10,10,13,3,,0.00,4,,312
2013-2-20,46,40,34,41,36,32,97,84,66,30.07,30.04,30.00,10,9,3,9,3,,0.07,8,Rain,137
2013-2-21,45,42,39,40,38,37,100,86,76,30.10,30.06,30.04,10,10,7,16,6,24,0.01,8,Rain,152
2013-2-22,46,42,39,41,38,33,89,81,70,30.08,29.89,29.74,10,8,3,18,10,30,0.35,6,Rain,159
2013-2-23,50,44,39,36,35,33,86,71,52,30.40,30.20,29.95,10,10,10,9,6,,0.00,8,,145
2013-2-24,48,45,42,38,34,32,76,67,56,30.40,30.28,29.97,10,10,10,13,7,24,0.00,8,,146
2013-2-25,51,45,39,39,35,28,87,72,41,30.33,30.09,29.91,10,10,8,18,11,30,0.06,4,Rain,163
2013-2-26,48,44,41,37,32,28,80,64,46,30.38,30.31,30.22,10,10,10,10,6,,0.00,8,,156
2013-2-27,50,44,39,45,41,38,100,87,66,30.32,30.28,30.24,10,9,2,9,3,,0.23,7,Rain,325
2013-2-28,53,48,42,51,46,42,100,95,88,30.34,30.26,30.21,10,8,4,8,3,,0.27,8,Rain,126